createdAt,value
2018-07-13T00:02:23.596Z,99.90
2018-07-13T00:04:51.790Z,99.90
2018-07-13T00:09:47.962Z,99.90
2018-07-13T00:12:16.136Z,99.90
2018-07-13T00:15:20.996Z,99.90
2018-07-13T00:17:49.164Z,99.90
2018-07-13T00:20:17.331Z,99.90
2018-07-13T00:22:46.372Z,99.90
2018-07-13T00:25:14.552Z,99.90
2018-07-13T00:27:42.719Z,99.90
2018-07-13T00:30:10.900Z,99.90
2018-07-13T00:32:39.063Z,99.90
2018-07-13T00:35:07.227Z,99.90
2018-07-13T00:37:35.414Z,99.90
2018-07-13T00:40:03.892Z,99.90
2018-07-13T00:42:32.073Z,99.90
2018-07-13T00:45:00.255Z,99.90
2018-07-13T00:52:24.345Z,99.90
2018-07-13T00:54:52.519Z,99.90
2018-07-13T00:57:20.709Z,99.90
2018-07-13T01:02:16.810Z,99.90
2018-07-13T01:04:44.988Z,99.90
2018-07-13T01:07:13.155Z,99.90
2018-07-13T01:09:41.321Z,99.90
2018-07-13T01:12:09.485Z,99.90
2018-07-13T01:14:37.655Z,99.90
2018-07-13T01:17:05.835Z,99.90
2018-07-13T01:19:34.016Z,99.90
2018-07-13T01:22:02.232Z,99.90
2018-07-13T01:24:30.407Z,99.90
2018-07-13T01:29:26.779Z,99.90
2018-07-13T01:31:54.976Z,99.90
2018-07-13T01:34:23.141Z,99.90
2018-07-13T01:36:51.632Z,99.90
2018-07-13T01:39:19.795Z,99.90
2018-07-13T01:41:47.972Z,99.90
2018-07-13T01:44:16.157Z,99.90
2018-07-13T01:46:44.387Z,99.90
2018-07-13T01:51:41.771Z,99.90
2018-07-13T01:54:09.948Z,99.90
2018-07-13T01:56:38.112Z,99.90
2018-07-13T01:59:06.312Z,99.90
2018-07-13T02:01:34.516Z,99.90
2018-07-13T02:04:02.691Z,99.90
2018-07-13T02:06:30.864Z,99.90
2018-07-13T02:08:59.105Z,99.90
2018-07-13T02:11:27.279Z,99.90
2018-07-13T02:13:55.480Z,99.90
2018-07-13T02:16:23.651Z,99.90
2018-07-13T02:18:51.842Z,99.90
2018-07-13T02:21:20.004Z,99.90
2018-07-13T02:23:48.203Z,99.90
2018-07-13T02:26:16.404Z,99.90
2018-07-13T02:28:44.559Z,99.90
2018-07-13T02:33:40.688Z,99.90
2018-07-13T02:36:08.849Z,99.90
2018-07-13T02:38:37.023Z,99.90
2018-07-13T02:41:05.201Z,99.90
2018-07-13T02:43:33.631Z,99.90
2018-07-13T02:46:01.804Z,99.90
2018-07-13T02:48:29.963Z,99.90
2018-07-13T02:50:58.150Z,99.90
2018-07-13T02:53:26.362Z,99.90
2018-07-13T02:55:54.616Z,99.90
2018-07-13T02:58:22.881Z,99.90
2018-07-13T03:00:51.064Z,99.90
2018-07-13T03:03:19.282Z,99.90
2018-07-13T03:05:47.567Z,99.90
2018-07-13T03:13:11.706Z,99.90
2018-07-13T03:15:39.896Z,99.90
2018-07-13T03:18:08.073Z,99.90
2018-07-13T03:20:36.286Z,99.90
2018-07-13T03:23:04.492Z,99.90
2018-07-13T03:25:32.668Z,99.90
2018-07-13T03:28:00.839Z,99.90
2018-07-13T03:30:29.022Z,99.90
2018-07-13T03:32:57.175Z,99.90
2018-07-13T03:35:25.369Z,99.90
2018-07-13T03:37:53.531Z,99.90
2018-07-13T03:40:21.704Z,99.90
2018-07-13T03:42:49.884Z,99.90
2018-07-13T03:45:18.055Z,99.90
2018-07-13T03:47:46.248Z,99.90
2018-07-13T03:50:14.789Z,99.90
2018-07-13T03:55:10.928Z,99.90
2018-07-13T03:57:39.104Z,99.90
2018-07-13T04:02:35.253Z,99.90
2018-07-13T04:07:31.431Z,99.90
2018-07-13T04:09:59.612Z,99.90
2018-07-13T04:12:27.774Z,99.90
2018-07-13T04:14:55.976Z,99.90
2018-07-13T04:17:24.148Z,99.90
2018-07-13T04:19:52.344Z,99.90
2018-07-13T04:22:20.515Z,99.90
2018-07-13T04:24:48.716Z,99.90
2018-07-13T04:32:13.191Z,99.90
2018-07-13T04:34:41.509Z,99.90
2018-07-13T04:39:37.628Z,99.90
2018-07-13T04:42:05.984Z,99.90
2018-07-13T04:44:34.184Z,99.90
2018-07-13T04:47:02.372Z,99.90
2018-07-13T04:54:26.496Z,99.90
2018-07-13T04:56:54.668Z,99.90
2018-07-13T04:59:22.848Z,99.90
2018-07-13T05:01:51.080Z,99.90
2018-07-13T05:04:19.528Z,99.90
2018-07-13T05:06:48.040Z,99.90
2018-07-13T05:09:16.273Z,99.90
2018-07-13T05:11:44.440Z,99.90
2018-07-13T05:14:12.634Z,99.90
2018-07-13T05:16:40.799Z,99.90
2018-07-13T05:19:08.973Z,99.90
2018-07-13T05:21:37.760Z,99.90
2018-07-13T05:24:05.985Z,99.90
2018-07-13T05:26:34.175Z,99.90
2018-07-13T05:31:30.276Z,99.90
2018-07-13T05:33:58.464Z,99.90
2018-07-13T05:36:26.649Z,99.90
2018-07-13T05:38:54.856Z,99.90
2018-07-13T05:41:23.029Z,99.90
2018-07-13T05:43:51.355Z,99.90
2018-07-13T05:46:19.561Z,99.90
2018-07-13T05:53:43.719Z,99.90
2018-07-13T05:56:11.940Z,99.90
2018-07-13T06:01:08.223Z,99.90
2018-07-13T06:03:36.437Z,99.90
2018-07-13T06:06:04.646Z,99.90
2018-07-13T06:11:00.843Z,99.90
2018-07-13T06:13:29.019Z,99.90
2018-07-13T06:15:57.179Z,99.90
2018-07-13T06:18:25.464Z,99.90
2018-07-13T06:20:53.639Z,99.90
2018-07-13T06:23:21.857Z,99.90
2018-07-13T06:28:17.969Z,99.90
2018-07-13T06:30:46.153Z,99.90
2018-07-13T06:35:42.393Z,99.90
2018-07-13T06:38:10.602Z,99.90
2018-07-13T06:40:38.796Z,99.90
2018-07-13T06:43:07.403Z,99.90
2018-07-13T06:45:37.673Z,99.90
2018-07-13T06:48:05.998Z,99.90
2018-07-13T06:50:34.394Z,99.90
2018-07-13T06:53:02.543Z,99.90
2018-07-13T06:55:30.716Z,99.90
2018-07-13T06:58:10.285Z,99.90
2018-07-13T07:00:56.439Z,99.90
2018-07-13T07:03:25.509Z,99.90
2018-07-13T07:05:55.196Z,99.90
2018-07-13T07:10:51.336Z,99.90
2018-07-13T07:15:50.856Z,99.90
2018-07-13T07:18:19.064Z,99.90
2018-07-13T07:20:47.249Z,99.90
2018-07-13T07:23:15.547Z,99.90
2018-07-13T07:25:43.774Z,99.90
2018-07-13T07:30:39.986Z,99.90
2018-07-13T07:33:08.297Z,99.90
2018-07-13T07:35:36.481Z,99.90
2018-07-13T07:38:04.676Z,99.90
2018-07-13T07:40:32.885Z,99.90
2018-07-13T07:43:01.072Z,99.90
2018-07-13T07:45:29.256Z,99.90
2018-07-13T07:50:25.568Z,99.90
2018-07-13T07:52:53.748Z,99.90
2018-07-13T07:55:21.952Z,99.90
2018-07-13T08:05:14.036Z,99.90
2018-07-13T08:10:10.178Z,99.90
2018-07-13T08:15:06.288Z,99.90
2018-07-13T08:17:34.467Z,99.90
2018-07-13T08:20:02.695Z,99.90
2018-07-13T08:22:37.722Z,99.90
2018-07-13T08:25:06.880Z,99.90
2018-07-13T08:30:06.108Z,99.90
2018-07-13T08:37:30.186Z,99.90
2018-07-13T08:39:58.364Z,99.90
2018-07-13T08:42:26.676Z,99.90
2018-07-13T08:44:54.896Z,99.90
2018-07-13T08:47:23.072Z,99.90
2018-07-13T08:49:51.396Z,99.90
2018-07-13T08:52:19.605Z,99.90
2018-07-13T08:54:47.825Z,99.90
2018-07-13T09:07:08.091Z,99.90
2018-07-13T09:12:04.256Z,99.90
2018-07-13T09:14:32.459Z,99.90
2018-07-13T09:17:00.643Z,99.90
2018-07-13T09:19:28.815Z,99.90
2018-07-13T09:21:56.996Z,99.90
2018-07-13T09:24:25.271Z,99.90
2018-07-13T09:26:53.436Z,99.90
2018-07-13T09:29:21.620Z,99.90
2018-07-13T09:31:49.805Z,99.90
2018-07-13T09:34:18.106Z,99.90
2018-07-13T09:36:46.215Z,99.90
2018-07-13T09:39:14.409Z,99.90
2018-07-13T09:41:42.612Z,99.90
2018-07-13T09:49:06.727Z,99.90
2018-07-13T09:54:03.003Z,99.90
2018-07-13T09:56:31.088Z,99.90
2018-07-13T09:58:59.286Z,99.90
2018-07-13T10:01:27.501Z,99.90
2018-07-13T10:06:23.692Z,99.90
2018-07-13T10:08:51.902Z,99.90
2018-07-13T10:13:48.028Z,99.90
2018-07-13T10:16:16.213Z,99.90
2018-07-13T10:18:44.442Z,99.90
2018-07-13T10:21:12.629Z,99.90
2018-07-13T10:23:41.532Z,99.90
2018-07-13T10:26:17.861Z,99.90
2018-07-13T10:28:46.068Z,99.90
2018-07-13T10:31:14.583Z,99.90
2018-07-13T10:36:13.387Z,99.90
2018-07-13T10:41:09.568Z,99.90
2018-07-13T10:43:37.747Z,99.90
2018-07-13T10:46:05.987Z,99.90
2018-07-13T10:48:34.192Z,99.90
2018-07-13T10:51:02.377Z,99.90
2018-07-13T10:53:30.572Z,99.90
2018-07-13T10:55:58.779Z,99.90
2018-07-13T11:00:55.072Z,99.90
2018-07-13T11:03:23.264Z,99.90
2018-07-13T11:05:51.440Z,99.70
2018-07-13T11:08:19.624Z,99.20
2018-07-13T11:10:47.796Z,99.60
2018-07-13T11:13:15.992Z,99.30
2018-07-13T11:20:40.149Z,99.40
2018-07-13T11:23:08.352Z,98.90
2018-07-13T11:25:36.528Z,99.20
2018-07-13T11:28:04.940Z,99.10
2018-07-13T11:33:01.068Z,98.00
2018-07-13T11:37:57.205Z,97.90
2018-07-13T11:40:25.371Z,99.30
2018-07-13T11:42:53.580Z,98.90
2018-07-13T11:45:21.760Z,98.40
2018-07-13T11:47:49.993Z,97.60
2018-07-13T11:50:18.174Z,98.10
2018-07-13T11:52:46.347Z,98.40
2018-07-13T11:55:14.528Z,97.80
2018-07-13T12:00:10.687Z,97.40
2018-07-13T12:02:38.904Z,97.60
2018-07-13T12:05:07.111Z,98.10
2018-07-13T12:07:35.351Z,98.40
2018-07-13T12:10:03.533Z,97.70
2018-07-13T12:12:31.738Z,97.70
2018-07-13T12:14:59.907Z,97.10
2018-07-13T12:17:28.179Z,97.20
2018-07-13T12:19:56.352Z,96.80
2018-07-13T12:22:24.540Z,97.30
2018-07-13T12:32:16.668Z,97.20
2018-07-13T12:34:44.858Z,97.10
2018-07-13T12:37:13.045Z,96.30
2018-07-13T12:39:41.252Z,96.60
2018-07-13T12:42:09.435Z,96.60
2018-07-13T12:44:37.627Z,96.80
2018-07-13T12:47:05.970Z,96.40
2018-07-13T12:52:02.083Z,96.10
2018-07-13T12:54:30.308Z,96.70
2018-07-13T13:01:54.457Z,96.30
2018-07-13T13:04:22.786Z,96.50
2018-07-13T13:09:18.916Z,96.10
2018-07-13T13:14:15.085Z,95.50
2018-07-13T13:16:43.248Z,95.50
2018-07-13T13:19:11.412Z,94.40
2018-07-13T13:24:07.580Z,93.60
2018-07-13T13:26:35.787Z,95.30
2018-07-13T13:29:05.770Z,94.30
2018-07-13T13:31:33.942Z,93.30
2018-07-13T13:34:02.136Z,94.50
2018-07-13T13:36:30.328Z,94.80
2018-07-13T13:38:58.538Z,95.60
2018-07-13T13:43:54.663Z,95.20
2018-07-13T13:48:50.860Z,95.60
2018-07-13T13:51:19.060Z,95.70
2018-07-13T13:53:47.316Z,95.50
2018-07-13T13:56:15.476Z,95.60
2018-07-13T13:58:43.669Z,95.60
2018-07-13T14:01:11.867Z,95.20
2018-07-13T14:03:40.047Z,95.50
2018-07-13T14:06:08.240Z,95.60
2018-07-13T14:08:36.448Z,95.60
2018-07-13T14:11:04.658Z,95.40
2018-07-13T14:13:32.852Z,95.30
2018-07-13T14:18:29.092Z,94.90
2018-07-13T14:23:25.239Z,95.20
2018-07-13T14:28:21.493Z,95.30
2018-07-13T14:30:49.630Z,94.80
2018-07-13T14:33:18.217Z,95.00
2018-07-13T14:35:46.448Z,95.20
2018-07-13T14:38:14.621Z,95.40
2018-07-13T14:40:42.783Z,95.90
2018-07-13T14:43:10.967Z,95.70
2018-07-13T14:45:39.163Z,96.00
2018-07-13T14:48:07.350Z,95.90
2018-07-13T14:50:35.543Z,95.90
2018-07-13T14:53:03.717Z,95.30
2018-07-13T14:55:31.888Z,96.00
2018-07-13T14:58:00.089Z,95.80
2018-07-13T15:00:28.387Z,95.80
2018-07-13T15:02:56.544Z,95.50
2018-07-13T15:05:24.939Z,95.40
2018-07-13T15:07:53.389Z,95.40
2018-07-13T15:12:49.536Z,95.90
2018-07-13T15:15:17.860Z,95.80
2018-07-13T15:17:46.884Z,95.70
2018-07-13T15:20:15.040Z,95.70
2018-07-13T15:22:43.220Z,95.60
2018-07-13T15:25:11.403Z,95.60
2018-07-13T15:27:39.642Z,95.20
2018-07-13T15:30:07.808Z,95.50
2018-07-13T15:32:35.993Z,95.00
2018-07-13T15:35:04.247Z,95.10
2018-07-13T15:37:32.429Z,95.20
2018-07-13T15:40:00.616Z,94.90
2018-07-13T15:42:28.923Z,95.00
2018-07-13T15:44:57.128Z,94.80
2018-07-13T15:47:25.309Z,94.90
2018-07-13T15:49:53.494Z,94.70
2018-07-13T15:52:21.693Z,95.30
2018-07-13T15:54:49.888Z,95.10
2018-07-13T15:57:18.072Z,95.50
2018-07-13T16:02:14.217Z,95.10
2018-07-13T16:04:42.411Z,95.30
2018-07-13T16:07:10.604Z,95.20
2018-07-13T16:09:38.804Z,95.40
2018-07-13T16:12:06.993Z,95.00
2018-07-13T16:14:35.171Z,94.90
2018-07-13T16:17:03.350Z,95.00
2018-07-13T16:19:31.507Z,94.80
2018-07-13T16:21:59.677Z,95.30
2018-07-13T16:24:27.901Z,94.70
2018-07-13T16:26:56.076Z,95.00
2018-07-13T16:29:24.252Z,95.10
2018-07-13T16:31:52.449Z,94.70
2018-07-13T16:34:20.615Z,94.80
2018-07-13T16:36:48.811Z,94.80
2018-07-13T16:39:17.005Z,94.70
2018-07-13T16:44:13.159Z,95.40
2018-07-13T16:46:41.336Z,95.10
2018-07-13T16:51:37.451Z,95.10
2018-07-13T16:54:05.716Z,95.30
2018-07-13T16:56:33.935Z,95.90
2018-07-13T16:59:02.099Z,95.70
2018-07-13T17:01:31.175Z,95.50
2018-07-13T17:03:59.365Z,95.30
2018-07-13T17:06:27.559Z,95.40
2018-07-13T17:08:56.076Z,95.80
2018-07-13T17:11:24.271Z,95.60
2018-07-13T17:13:52.508Z,96.00
2018-07-13T17:16:20.687Z,96.10
2018-07-13T17:18:48.894Z,96.10
2018-07-13T17:21:17.103Z,95.90
2018-07-13T17:26:13.278Z,96.50
2018-07-13T17:28:41.393Z,96.40
2018-07-13T17:31:09.583Z,96.70
2018-07-13T17:33:37.748Z,97.00
2018-07-13T17:36:05.929Z,97.60
2018-07-13T17:38:34.129Z,97.50
2018-07-13T17:41:02.313Z,97.40
2018-07-13T17:43:30.511Z,97.20
2018-07-13T17:45:58.778Z,97.40
2018-07-13T17:48:26.949Z,97.30
2018-07-13T17:50:55.139Z,97.40
2018-07-13T17:53:23.324Z,97.30
2018-07-13T17:55:51.511Z,97.50
2018-07-13T17:58:19.703Z,97.80
2018-07-13T18:00:47.975Z,97.90
2018-07-13T18:03:16.141Z,98.10
2018-07-13T18:05:44.311Z,98.10
2018-07-13T18:08:12.496Z,98.30
2018-07-13T18:13:08.737Z,98.70
2018-07-13T18:18:05.348Z,98.30
2018-07-13T18:20:33.619Z,98.60
2018-07-13T18:23:01.870Z,98.50
2018-07-13T18:25:29.976Z,98.70
2018-07-13T18:27:58.191Z,99.10
2018-07-13T18:32:54.387Z,99.50
2018-07-13T18:35:22.603Z,99.50
2018-07-13T18:40:18.788Z,99.90
2018-07-13T18:42:46.983Z,99.90
2018-07-13T18:45:15.172Z,99.90
2018-07-13T18:47:43.350Z,99.90
2018-07-13T18:50:11.533Z,99.90
2018-07-13T18:52:39.733Z,99.90
2018-07-13T18:57:35.920Z,99.90
2018-07-13T19:00:04.532Z,99.90
2018-07-13T19:02:32.732Z,99.90
2018-07-13T19:05:00.892Z,99.90
2018-07-13T19:09:57.096Z,99.90
2018-07-13T19:12:25.252Z,99.90
2018-07-13T19:14:54.576Z,99.90
2018-07-13T19:17:24.880Z,99.90
2018-07-13T19:19:53.974Z,99.90
2018-07-13T19:22:23.802Z,99.90
2018-07-13T19:24:57.109Z,99.90
2018-07-13T19:27:27.415Z,99.90
2018-07-13T19:29:56.456Z,99.90
2018-07-13T19:34:58.949Z,99.90
2018-07-13T19:37:31.097Z,99.90
2018-07-13T19:39:59.698Z,99.90
2018-07-13T19:42:29.234Z,99.90
2018-07-13T19:44:58.381Z,99.90
2018-07-13T19:47:27.652Z,99.90
2018-07-13T19:49:55.855Z,99.90
2018-07-13T19:52:24.047Z,99.90
2018-07-13T19:54:52.660Z,99.90
2018-07-13T19:57:21.434Z,99.90
2018-07-13T19:59:49.568Z,99.90
2018-07-13T20:02:17.772Z,99.90
2018-07-13T20:04:46.022Z,99.90
2018-07-13T20:07:14.208Z,99.90
2018-07-13T20:12:10.417Z,99.90
2018-07-13T20:14:38.602Z,99.90
2018-07-13T20:17:06.800Z,99.90
2018-07-13T20:19:34.971Z,99.90
2018-07-13T20:24:31.896Z,99.90
2018-07-13T20:27:00.081Z,99.90
2018-07-13T20:29:28.384Z,99.90
2018-07-13T20:34:24.554Z,99.90
2018-07-13T20:36:52.834Z,99.90
2018-07-13T20:39:21.122Z,99.90
2018-07-13T20:41:49.283Z,99.90
2018-07-13T20:44:17.537Z,99.90
2018-07-13T20:46:45.752Z,99.90
2018-07-13T20:49:13.944Z,99.90
2018-07-13T20:51:42.187Z,99.90
2018-07-13T20:54:10.468Z,99.90
2018-07-13T20:56:38.607Z,99.90
2018-07-13T20:59:06.838Z,99.90
2018-07-13T21:01:35.076Z,99.90
2018-07-13T21:04:03.295Z,99.90
2018-07-13T21:06:32.472Z,99.90
2018-07-13T21:09:00.716Z,99.90
2018-07-13T21:11:28.916Z,99.90
2018-07-13T21:13:57.380Z,99.90
2018-07-13T21:16:25.592Z,99.90
2018-07-13T21:18:53.849Z,99.90
2018-07-13T21:21:22.063Z,99.90
2018-07-13T21:26:18.248Z,99.90
2018-07-13T21:28:46.466Z,99.90
2018-07-13T21:31:14.651Z,99.90
2018-07-13T21:33:42.915Z,99.90
2018-07-13T21:36:11.148Z,99.90
2018-07-13T21:38:39.337Z,99.90
2018-07-13T21:41:07.536Z,99.90
2018-07-13T21:43:35.804Z,99.90
2018-07-13T21:46:03.971Z,99.90
2018-07-13T21:48:32.245Z,99.90
2018-07-13T21:51:00.454Z,99.90
2018-07-13T21:53:28.637Z,99.90
2018-07-13T21:55:56.812Z,99.90
2018-07-13T22:00:52.935Z,99.90
2018-07-13T22:03:21.168Z,99.90
2018-07-13T22:05:49.361Z,99.90
2018-07-13T22:08:17.564Z,99.90
2018-07-13T22:10:45.768Z,99.90
2018-07-13T22:13:14.002Z,99.90
2018-07-13T22:15:42.155Z,99.90
2018-07-13T22:18:10.353Z,99.90
2018-07-13T22:20:38.585Z,99.90
2018-07-13T22:23:06.741Z,99.90
2018-07-13T22:25:34.939Z,99.90
2018-07-13T22:28:03.135Z,99.90
2018-07-13T22:30:31.334Z,99.90
2018-07-13T22:32:59.580Z,99.90
2018-07-13T22:35:27.760Z,99.90
2018-07-13T22:37:55.947Z,99.90
2018-07-13T22:42:52.088Z,99.90
2018-07-13T22:45:20.277Z,99.90
2018-07-13T22:50:22.767Z,99.90
2018-07-13T22:55:19.692Z,99.90
2018-07-13T22:57:47.868Z,99.90
2018-07-13T23:00:16.080Z,99.90
2018-07-13T23:02:44.282Z,99.90
2018-07-13T23:05:12.475Z,99.90
2018-07-13T23:07:40.688Z,99.90
2018-07-13T23:12:36.820Z,99.90
2018-07-13T23:15:05.064Z,99.90
2018-07-13T23:17:33.243Z,99.90
2018-07-13T23:20:01.471Z,99.90
2018-07-13T23:22:29.669Z,99.90
2018-07-13T23:24:57.904Z,99.90
2018-07-13T23:27:26.079Z,99.90
2018-07-13T23:32:22.208Z,99.90
2018-07-13T23:34:50.371Z,99.90
2018-07-13T23:37:18.565Z,99.90
2018-07-13T23:39:46.731Z,99.90
2018-07-13T23:42:14.908Z,99.90
2018-07-13T23:44:43.084Z,99.90
2018-07-13T23:47:11.259Z,99.90
2018-07-13T23:52:07.430Z,99.90
2018-07-13T23:54:35.620Z,99.90
2018-07-13T23:57:03.796Z,99.90
2018-07-13T23:59:31.978Z,99.90
